Time;durP1;ratioP1;P1;durP2;ratioP2;P2;SDS_P1;SDS_P2;PMS_P1;PMS_P2;Temp;Humidity;BMP_temperature;BMP_pressure;BME280_temperature;BME280_humidity;BME280_pressure;Samples;Min_cycle;Max_cycle;Signal;HPM_P1;HPM_P2
2021/09/14 00:01:42;;;;;;;1.08;0.25;;;;;;;19.32;55.94;101803.25;5056394;28;20025;-70
2021/09/14 00:04:08;;;;;;;0.45;0.20;;;;;;;19.33;55.70;101802.25;5056062;28;20025;-70
2021/09/14 00:06:38;;;;;;;0.60;0.15;;;;;;;19.35;55.88;101807.53;5055850;28;20032;-70
2021/09/14 00:09:04;;;;;;;0.22;0.20;;;;;;;19.32;54.64;101802.41;5055864;28;20029;-70
2021/09/14 00:11:30;;;;;;;0.50;0.20;;;;;;;19.33;54.94;101804.97;5055863;28;20040;-70
2021/09/14 00:13:55;;;;;;;0.50;0.10;;;;;;;19.35;55.14;101802.94;5057592;28;20009;-70
2021/09/14 00:16:20;;;;;;;1.17;0.20;;;;;;;19.34;54.75;101806.69;5066101;28;20025;-70
2021/09/14 00:18:46;;;;;;;0.55;0.13;;;;;;;19.30;56.08;101801.66;5055776;28;20098;-70
2021/09/14 00:21:12;;;;;;;0.20;0.15;;;;;;;19.31;54.14;101804.25;5055408;28;20029;-69
2021/09/14 00:23:37;;;;;;;0.63;0.32;;;;;;;19.30;54.54;101802.53;5055554;28;20095;-69
2021/09/14 00:26:02;;;;;;;0.28;0.25;;;;;;;19.27;55.27;101810.16;5055658;28;20025;-70
2021/09/14 00:28:29;;;;;;;0.15;0.15;;;;;;;19.27;54.91;101805.56;5055620;28;20100;-69
2021/09/14 00:30:54;;;;;;;0.38;0.20;;;;;;;19.27;54.86;101808.28;5055293;28;20357;-69
2021/09/14 00:33:21;;;;;;;0.75;0.20;;;;;;;19.23;55.28;101801.44;5037883;28;20021;-70
2021/09/14 00:35:47;;;;;;;0.75;0.20;;;;;;;19.27;56.18;101799.25;5058794;28;20012;-70
2021/09/14 00:38:12;;;;;;;0.40;0.20;;;;;;;19.28;55.84;101801.81;5055533;28;20464;-70
2021/09/14 00:40:39;;;;;;;0.30;0.15;;;;;;;19.23;55.06;101802.31;5052176;28;20022;-69
2021/09/14 00:43:04;;;;;;;0.52;0.10;;;;;;;19.26;54.70;101798.41;5035363;28;20029;-70
2021/09/14 00:45:29;;;;;;;0.28;0.10;;;;;;;19.27;56.24;101805.56;5017851;28;20118;-69
2021/09/14 00:47:55;;;;;;;1.70;0.20;;;;;;;19.22;55.33;101810.63;5035043;28;20025;-70
2021/09/14 00:50:20;;;;;;;0.60;0.22;;;;;;;19.21;55.90;101808.91;5017658;28;20022;-70
2021/09/14 00:52:45;;;;;;;0.68;0.28;;;;;;;19.19;56.79;101813.69;5035606;28;20024;-70
2021/09/14 00:55:11;;;;;;;0.45;0.30;;;;;;;19.22;56.73;101805.19;5034846;28;20030;-70
2021/09/14 00:57:36;;;;;;;0.43;0.20;;;;;;;19.19;55.76;101808.22;5035339;28;20502;-69
2021/09/14 01:00:03;;;;;;;0.30;0.20;;;;;;;19.22;55.31;101810.63;5040537;28;20104;-70
2021/09/14 01:02:29;;;;;;;0.47;0.10;;;;;;;19.23;55.31;101815.06;5034976;28;20056;-69
2021/09/14 01:04:57;;;;;;;0.35;0.22;;;;;;;19.20;55.51;101804.47;5034805;28;20475;-70
2021/09/14 01:07:22;;;;;;;0.52;0.20;;;;;;;19.17;56.68;101810.25;5034911;28;20523;-70
2021/09/14 01:09:48;;;;;;;0.15;0.10;;;;;;;19.17;54.56;101807.53;5021121;28;20037;-69
2021/09/14 01:12:14;;;;;;;0.20;0.20;;;;;;;19.13;54.40;101808.81;5034606;28;20029;-69
2021/09/14 01:14:49;;;;;;;0.73;0.22;;;;;;;19.17;54.92;101812.97;5034976;28;20028;-69
2021/09/14 01:17:15;;;;;;;1.50;0.38;;;;;;;19.16;54.67;101808.53;5033961;28;20036;-69
2021/09/14 01:19:40;;;;;;;0.35;0.20;;;;;;;19.16;54.88;101803.09;5034694;28;20025;-70
2021/09/14 01:22:05;;;;;;;1.25;0.20;;;;;;;19.17;54.75;101804.81;5017114;28;20075;-70
2021/09/14 01:24:30;;;;;;;0.40;0.20;;;;;;;19.15;56.17;101795.91;5034543;28;20550;-70
2021/09/14 01:26:56;;;;;;;0.30;0.20;;;;;;;19.11;55.99;101800.78;5034583;28;20021;-69
2021/09/14 01:32:06;;;;;;;0.10;0.10;;;;;;;19.12;56.85;101798.94;5034606;28;20032;-69
2021/09/14 01:34:31;;;;;;;0.43;0.40;;;;;;;19.14;55.19;101807.81;5034824;28;20029;-70
2021/09/14 01:36:57;;;;;;;0.32;0.30;;;;;;;19.14;54.69;101805.06;5035229;28;20214;-70
2021/09/14 01:39:22;;;;;;;0.60;0.30;;;;;;;19.12;55.13;101807.09;5034460;28;20029;-70
2021/09/14 01:41:47;;;;;;;0.52;0.20;;;;;;;19.13;55.43;101797.91;5036342;28;20516;-70
2021/09/14 01:44:13;;;;;;;1.25;0.20;;;;;;;19.10;55.46;101801.81;5016708;28;20022;-70
2021/09/14 01:46:38;;;;;;;0.60;0.20;;;;;;;19.10;54.98;101801.81;5034394;28;20030;-69
2021/09/14 01:49:03;;;;;;;1.40;0.20;;;;;;;19.11;54.94;101799.94;5033918;28;20029;-69
2021/09/14 01:51:29;;;;;;;0.52;0.20;;;;;;;19.13;56.53;101804.22;5016556;28;20078;-69
2021/09/14 01:53:56;;;;;;;0.47;0.30;;;;;;;19.11;55.32;101794.50;5016257;28;20044;-70
2021/09/14 01:56:21;;;;;;;0.60;0.20;;;;;;;19.06;56.05;101791.38;5033790;28;20044;-70
2021/09/14 01:58:46;;;;;;;0.30;0.20;;;;;;;19.12;55.75;101804.38;5016736;28;20021;-69
2021/09/14 02:01:25;;;;;;;0.63;0.10;;;;;;;19.09;55.82;101801.97;5033802;28;20036;-70
2021/09/14 02:38:19;;;;;;;0.30;0.17;;;;;;;19.02;55.68;101822.69;4974352;28;20782;-69
2021/09/14 02:40:03;;;;;;;0.43;0.27;;;;;;;19.02;55.35;101828.13;4972768;28;20029;-70
2021/09/14 02:42:51;;;;;;;0.47;0.10;;;;;;;19.01;55.88;101826.41;4974434;28;20033;-70
2021/09/14 02:56:34;;;;;;;0.30;0.30;;;;;;;19.00;55.20;101836.47;5033091;28;20506;-70
2021/09/14 02:58:59;;;;;;;0.30;0.25;;;;;;;18.99;56.81;101839.34;5033076;28;20030;-69
2021/09/14 03:01:24;;;;;;;0.60;0.28;;;;;;;18.98;56.44;101841.22;5037144;28;20431;-70
2021/09/14 03:03:52;;;;;;;0.25;0.20;;;;;;;18.99;54.96;101845.66;5033007;28;20021;-69
2021/09/14 03:06:19;;;;;;;0.40;0.28;;;;;;;18.97;55.13;101841.31;5033042;28;20515;-70
2021/09/14 03:08:44;;;;;;;0.77;0.32;;;;;;;18.99;54.52;101845.66;5017061;28;20179;-69
2021/09/14 03:11:14;;;;;;;0.50;0.20;;;;;;;18.97;55.96;101838.59;5032970;28;20681;-70
2021/09/14 03:13:41;;;;;;;1.00;0.30;;;;;;;18.96;57.37;101826.00;5033438;28;20452;-69
2021/09/14 03:16:08;;;;;;;0.10;0.10;;;;;;;18.98;55.74;101821.25;5015471;28;20100;-70
2021/09/14 03:18:34;;;;;;;0.55;0.20;;;;;;;18.96;55.09;101828.72;5033158;28;20029;-70
2021/09/14 03:21:01;;;;;;;0.85;0.50;;;;;;;19.02;55.23;101817.22;5035016;28;20025;-69
2021/09/14 03:23:26;;;;;;;1.45;0.20;;;;;;;19.00;56.16;101821.97;5032651;28;20087;-70
2021/09/14 03:25:52;;;;;;;2.05;0.22;;;;;;;19.01;56.00;101820.97;5033115;28;20129;-69
2021/09/14 03:28:17;;;;;;;0.80;0.40;;;;;;;18.93;55.25;101814.38;5032947;28;20116;-69
2021/09/14 03:30:44;;;;;;;0.43;0.10;;;;;;;19.01;54.99;101815.50;5033151;28;20021;-69
2021/09/14 03:33:10;;;;;;;0.43;0.30;;;;;;;18.92;57.01;101818.13;5035467;28;20014;-69
2021/09/14 03:35:36;;;;;;;0.30;0.05;;;;;;;18.99;56.42;101812.09;5017945;28;20107;-69
2021/09/14 03:38:03;;;;;;;0.45;0.28;;;;;;;18.99;58.02;101812.94;5032585;28;20053;-69
2021/09/14 03:40:30;;;;;;;0.45;0.20;;;;;;;18.99;56.25;101820.25;5035407;28;20037;-70
2021/09/14 03:42:55;;;;;;;1.38;0.40;;;;;;;18.96;57.53;101813.22;5039630;28;20032;-69
2021/09/14 03:45:21;;;;;;;0.35;0.15;;;;;;;19.01;56.37;101815.50;5036611;28;20037;-70
2021/09/14 03:47:46;;;;;;;0.57;0.20;;;;;;;18.96;55.26;101812.38;5018981;28;20483;-69
2021/09/14 03:50:12;;;;;;;0.15;0.10;;;;;;;18.97;55.97;101801.31;5036487;28;20044;-69
2021/09/14 03:52:37;;;;;;;0.50;0.20;;;;;;;18.96;55.42;101813.22;5036694;28;20033;-70
2021/09/14 03:55:04;;;;;;;1.08;0.25;;;;;;;18.99;56.17;101812.94;5036196;28;20018;-69
2021/09/14 03:57:29;;;;;;;0.10;0.10;;;;;;;18.92;54.99;101807.22;5038121;28;20029;-69
2021/09/14 03:59:55;;;;;;;0.30;0.15;;;;;;;18.97;55.72;101808.63;5039132;28;20108;-70
2021/09/14 04:02:40;;;;;;;2.05;0.52;;;;;;;19.29;55.51;101809.00;5021921;28;20037;-70
2021/09/14 04:08:50;;;;;;;;;;;;;;;19.93;54.29;101798.88;5036463;28;20032;-70
2021/09/14 04:10:42;;;;;;;0.30;0.10;;;;;;;20.05;54.51;101801.19;5035921;28;19991;-69
2021/09/14 04:13:09;;;;;;;0.82;0.40;;;;;;;20.16;52.85;101807.44;5018012;28;20412;-69
2021/09/14 04:15:35;;;;;;;0.10;0.10;;;;;;;20.24;54.63;101804.72;5036081;28;20461;-70
2021/09/14 04:18:02;;;;;;;0.43;0.20;;;;;;;20.38;54.12;101806.88;5035713;28;20033;-69
2021/09/14 04:20:28;;;;;;;0.77;0.30;;;;;;;20.46;53.56;101806.94;5037472;28;20053;-70
2021/09/14 04:22:53;;;;;;;0.20;0.15;;;;;;;20.60;55.40;101805.47;5035605;28;20072;-69
2021/09/14 04:25:18;;;;;;;0.35;0.20;;;;;;;20.61;54.53;101816.25;5035781;28;20392;-69
2021/09/14 04:27:45;;;;;;;0.20;0.20;;;;;;;20.66;54.04;101815.78;5035840;28;20437;-69
2021/09/14 04:30:12;;;;;;;0.20;0.08;;;;;;;20.67;53.54;101807.41;5035557;28;20053;-69
2021/09/14 04:32:38;;;;;;;0.77;0.20;;;;;;;20.72;53.86;101815.97;5035523;28;20025;-69
2021/09/14 04:35:04;;;;;;;0.77;0.32;;;;;;;20.75;53.97;101813.94;5035608;28;20076;-69
2021/09/14 04:37:30;;;;;;;0.47;0.03;;;;;;;20.82;56.34;101814.97;5035621;28;20071;-69
2021/09/14 04:39:55;;;;;;;0.60;0.10;;;;;;;20.80;56.16;101817.88;5035388;28;20017;-69
2021/09/14 04:42:21;;;;;;;0.98;0.22;;;;;;;20.84;54.22;101824.75;5036707;28;20021;-69
2021/09/14 04:44:48;;;;;;;1.90;0.20;;;;;;;20.89;54.56;101826.97;5035539;28;20017;-69
2021/09/14 04:47:14;;;;;;;0.15;0.10;;;;;;;20.81;54.66;101832.38;5035085;28;20057;-69
2021/09/14 04:49:39;;;;;;;0.10;0.00;;;;;;;20.87;54.44;101835.34;5017904;28;20059;-70
2021/09/14 04:52:06;;;;;;;0.10;0.10;;;;;;;20.84;55.45;101834.81;5033680;28;20026;-70
2021/09/14 04:54:36;;;;;;;0.25;0.20;;;;;;;20.88;55.02;101841.66;5035355;28;20056;-69
2021/09/14 04:57:02;;;;;;;0.15;0.10;;;;;;;20.92;56.03;101848.50;5035059;28;20025;-70
2021/09/14 04:59:27;;;;;;;0.98;0.20;;;;;;;20.98;54.55;101848.69;5035283;28;20034;-69
2021/09/14 05:01:52;;;;;;;0.20;0.10;;;;;;;20.96;55.95;101844.41;5035916;28;20064;-69
2021/09/14 05:04:18;;;;;;;0.40;0.13;;;;;;;20.96;57.16;101831.59;5036124;28;20021;-69
2021/09/14 05:06:43;;;;;;;0.55;0.47;;;;;;;20.98;56.01;101831.44;5034891;28;20480;-69
2021/09/14 05:09:09;;;;;;;0.32;0.20;;;;;;;20.99;55.36;101827.69;5035086;28;20037;-69
2021/09/14 05:11:35;;;;;;;0.40;0.20;;;;;;;21.03;56.39;101834.56;5035294;28;20029;-70
2021/09/14 05:14:02;;;;;;;0.70;0.20;;;;;;;21.04;55.30;101841.72;5034647;28;20021;-69
2021/09/14 05:16:27;;;;;;;0.70;0.40;;;;;;;21.04;55.16;101844.47;5034899;28;20029;-69
2021/09/14 05:18:54;;;;;;;0.38;0.20;;;;;;;21.06;55.67;101842.41;5034697;28;20031;-70
2021/09/14 05:21:19;;;;;;;0.10;0.10;;;;;;;21.13;56.97;101834.41;5039941;28;20032;-70
2021/09/14 05:23:45;;;;;;;0.28;0.10;;;;;;;21.14;55.06;101845.16;5034334;28;20439;-69
2021/09/14 05:26:11;;;;;;;0.22;0.10;;;;;;;21.16;55.73;101832.19;5023900;28;20022;-69
2021/09/14 05:28:38;;;;;;;0.82;0.43;;;;;;;21.11;58.55;101829.09;5034755;28;20044;-69
2021/09/14 05:31:05;;;;;;;0.30;0.20;;;;;;;21.11;55.65;101828.25;5034630;28;20021;-69
2021/09/14 05:33:31;;;;;;;0.20;0.10;;;;;;;21.18;55.20;101826.56;5034362;28;20100;-69
2021/09/14 05:35:59;;;;;;;0.60;0.30;;;;;;;21.17;57.44;101831.19;5034127;28;20063;-69
2021/09/14 05:38:26;;;;;;;0.47;0.10;;;;;;;21.16;57.33;101829.44;5034120;28;20079;-69
2021/09/14 05:40:56;;;;;;;0.70;0.10;;;;;;;21.18;58.56;101826.56;5042722;28;20017;-69
2021/09/14 05:43:23;;;;;;;0.10;0.10;;;;;;;21.18;56.46;101824.69;5036264;28;20025;-69
2021/09/14 05:45:48;;;;;;;0.43;0.25;;;;;;;21.20;57.31;101825.38;5054272;28;20523;-69
2021/09/14 05:48:14;;;;;;;0.90;0.17;;;;;;;21.24;57.64;101823.16;5053926;28;20057;-69
2021/09/14 05:50:40;;;;;;;0.15;0.10;;;;;;;21.25;55.80;101828.50;5036711;28;20040;-70
2021/09/14 05:53:05;;;;;;;0.20;0.20;;;;;;;21.25;58.49;101838.59;5035620;28;20043;-69
2021/09/14 05:55:31;;;;;;;0.75;0.10;;;;;;;21.24;58.86;101837.72;5016405;28;20417;-69
2021/09/14 05:57:57;;;;;;;1.48;0.63;;;;;;;21.22;57.18;101834.28;5033638;28;20036;-69
2021/09/14 06:00:22;;;;;;;0.40;0.20;;;;;;;21.25;58.63;101844.91;5038484;28;20040;-70
2021/09/14 06:02:48;;;;;;;0.55;0.10;;;;;;;21.23;56.10;101844.19;5034967;28;20041;-69
2021/09/14 06:05:14;;;;;;;0.20;0.10;;;;;;;21.24;56.57;101843.19;5027579;28;20041;-69
2021/09/14 06:07:40;;;;;;;0.85;0.38;;;;;;;21.24;57.13;101842.31;5033863;28;20471;-70
2021/09/14 06:10:06;;;;;;;0.20;0.20;;;;;;;21.23;57.84;101841.44;5032935;28;20029;-69
2021/09/14 06:12:32;;;;;;;0.38;0.20;;;;;;;21.22;58.77;101837.00;5032823;28;20488;-69
2021/09/14 06:14:58;;;;;;;0.40;0.10;;;;;;;21.27;57.56;101845.59;5033363;28;20018;-69
2021/09/14 06:17:23;;;;;;;0.50;0.20;;;;;;;21.27;57.17;101856.53;5033235;28;20029;-69
2021/09/14 06:19:48;;;;;;;0.38;0.20;;;;;;;21.32;58.65;101851.41;5033329;28;20037;-69
2021/09/14 06:22:14;;;;;;;0.52;0.10;;;;;;;21.34;59.21;101847.69;5041536;28;20536;-69
2021/09/14 06:24:39;;;;;;;0.82;0.10;;;;;;;21.29;57.29;101846.28;5020685;28;20507;-69
2021/09/14 06:27:05;;;;;;;1.45;0.20;;;;;;;21.32;58.50;101856.88;5013895;28;20507;-69
2021/09/14 06:29:31;;;;;;;0.88;0.20;;;;;;;21.39;60.23;101868.03;5031326;28;20029;-70
2021/09/14 06:31:56;;;;;;;0.20;0.10;;;;;;;21.38;59.87;101870.94;5015172;28;20021;-67
2021/09/14 06:34:22;;;;;;;0.77;0.10;;;;;;;21.42;58.23;101872.31;5033218;28;20142;-68
2021/09/14 06:36:47;;;;;;;0.20;0.10;;;;;;;21.38;59.20;101876.41;5033132;28;20471;-68
2021/09/14 06:39:22;;;;;;;0.43;0.20;;;;;;;21.42;57.49;101861.38;5052479;28;20452;-72
2021/09/14 06:41:47;;;;;;;0.30;0.05;;;;;;;21.38;59.39;101870.94;5036026;28;20543;-68
2021/09/14 06:44:13;;;;;;;0.75;0.20;;;;;;;21.38;59.84;101865.47;5033640;28;20117;-69
2021/09/14 06:46:38;;;;;;;0.52;0.17;;;;;;;21.40;58.53;101868.88;5036536;28;20057;-70
2021/09/14 06:49:03;;;;;;;0.40;0.20;;;;;;;21.41;58.16;101871.44;5033164;28;20068;-68
2021/09/14 06:51:29;;;;;;;0.10;0.00;;;;;;;21.42;57.22;101869.56;5033571;28;20036;-67
2021/09/14 06:53:54;;;;;;;0.35;0.25;;;;;;;21.44;56.23;101860.16;5030633;28;20060;-69
2021/09/14 06:56:20;;;;;;;0.45;0.17;;;;;;;21.45;57.56;101855.56;5031680;28;20021;-69
2021/09/14 06:58:46;;;;;;;0.63;0.00;;;;;;;21.45;59.21;101855.56;5038849;28;20029;-68
2021/09/14 07:01:18;;;;;;;0.28;0.22;;;;;;;21.52;59.81;101862.09;5040652;28;20084;-69
2021/09/14 07:03:44;;;;;;;0.20;0.10;;;;;;;21.54;56.81;101863.63;5031267;28;20757;-69
2021/09/14 07:06:09;;;;;;;0.30;0.10;;;;;;;21.50;60.80;101859.50;5029774;28;20029;-70
2021/09/14 07:08:35;;;;;;;0.30;0.22;;;;;;;21.51;58.16;101876.78;5032158;28;20029;-69
2021/09/14 07:11:02;;;;;;;0.30;0.10;;;;;;;21.49;57.76;101868.72;5036358;28;20022;-69
2021/09/14 07:13:27;;;;;;;0.57;0.32;;;;;;;21.48;59.04;101871.63;5032173;28;20045;-69
2021/09/14 07:15:53;;;;;;;0.55;0.20;;;;;;;21.46;58.57;101873.69;5033902;28;20063;-70
2021/09/14 07:18:18;;;;;;;0.50;0.30;;;;;;;21.50;59.47;101866.84;5034278;28;20040;-69
2021/09/14 07:20:44;;;;;;;0.63;0.20;;;;;;;21.49;59.04;101876.94;5035853;28;20029;-69
2021/09/14 07:23:09;;;;;;;0.20;0.10;;;;;;;21.49;59.34;101879.66;5031009;28;20492;-69
2021/09/14 07:25:41;;;;;;;0.20;0.00;;;;;;;21.52;58.45;101889.44;5035075;28;20691;-69
2021/09/14 07:28:08;;;;;;;0.70;0.20;;;;;;;21.50;57.30;101880.50;5038065;28;20026;-70
2021/09/14 07:30:34;;;;;;;1.35;0.30;;;;;;;21.43;58.09;101884.97;5036915;28;20034;-70
2021/09/14 07:33:00;;;;;;;1.63;0.20;;;;;;;21.36;57.61;101892.13;5059691;22;20029;-70
2021/09/14 07:35:26;;;;;;;0.20;0.20;;;;;;;21.22;56.53;101886.22;5054102;28;20118;-71
2021/09/14 07:37:52;;;;;;;0.38;0.10;;;;;;;21.13;55.84;101889.94;5056535;28;20031;-71
2021/09/14 07:40:17;;;;;;;0.40;0.10;;;;;;;21.09;56.91;101883.09;5056686;28;20107;-69
2021/09/14 07:42:42;;;;;;;1.08;0.15;;;;;;;21.03;55.83;101887.34;5056731;28;20108;-69
2021/09/14 07:45:08;;;;;;;0.57;0.10;;;;;;;21.01;56.37;101889.41;5056196;28;20667;-69
2021/09/14 07:47:33;;;;;;;0.43;0.30;;;;;;;21.01;57.71;101885.81;5056343;28;20091;-69
2021/09/14 07:49:59;;;;;;;0.60;0.20;;;;;;;20.92;55.72;101897.72;5057059;28;20036;-69
2021/09/14 07:52:24;;;;;;;0.13;0.13;;;;;;;20.88;55.35;101899.06;5056902;28;20581;-69
2021/09/14 07:54:49;;;;;;;0.10;0.10;;;;;;;20.85;56.26;101897.53;5056024;28;20031;-71
2021/09/14 07:57:15;;;;;;;0.80;0.20;;;;;;;20.89;55.91;101903.50;5054893;28;20031;-71
2021/09/14 07:59:40;;;;;;;0.30;0.15;;;;;;;20.84;55.72;101905.88;5055327;28;20027;-71
2021/09/14 08:02:05;;;;;;;0.45;0.17;;;;;;;20.88;57.27;101904.53;5055165;28;20403;-71
2021/09/14 08:04:31;;;;;;;0.32;0.30;;;;;;;20.83;55.51;101904.16;5055675;28;20043;-71
2021/09/14 08:06:56;;;;;;;0.70;0.30;;;;;;;20.90;54.98;101905.22;5055564;28;20032;-69
2021/09/14 08:09:25;;;;;;;0.75;0.30;;;;;;;20.90;55.99;101913.44;5055536;28;20054;-69
2021/09/14 08:11:50;;;;;;;0.30;0.20;;;;;;;20.85;55.40;101907.59;5054229;28;20052;-69
2021/09/14 08:14:16;;;;;;;0.52;0.17;;;;;;;20.88;55.89;101901.78;5055192;28;20133;-69
2021/09/14 08:16:41;;;;;;;0.68;0.40;;;;;;;20.87;55.41;101911.03;5056613;28;20053;-69
2021/09/14 08:19:06;;;;;;;0.40;0.30;;;;;;;20.85;56.05;101913.06;5042336;28;20463;-69
2021/09/14 08:21:32;;;;;;;0.25;0.22;;;;;;;20.84;55.00;101908.63;5048775;28;20025;-69
2021/09/14 08:23:57;;;;;;;0.20;0.10;;;;;;;20.85;57.25;101903.00;5036716;28;20025;-69
2021/09/14 08:26:23;;;;;;;0.77;0.50;;;;;;;20.83;55.66;101899.56;5052117;28;20075;-69
2021/09/14 08:28:48;;;;;;;1.38;0.50;;;;;;;20.83;56.06;101904.16;5054176;28;20025;-69
2021/09/14 08:31:14;;;;;;;0.35;0.25;;;;;;;20.82;55.06;101902.44;5053241;28;20056;-69
2021/09/14 08:33:39;;;;;;;0.45;0.40;;;;;;;20.78;54.92;101892.84;5051861;28;20033;-69
2021/09/14 08:36:06;;;;;;;0.50;0.32;;;;;;;20.80;56.15;101893.53;5053869;28;20064;-71
2021/09/14 08:38:32;;;;;;;1.40;0.25;;;;;;;20.76;55.59;101903.09;5037378;28;20033;-71
2021/09/14 08:40:59;;;;;;;0.52;0.28;;;;;;;20.75;56.20;101898.63;5056140;28;20028;-69
2021/09/14 08:43:24;;;;;;;0.40;0.20;;;;;;;20.77;57.20;101896.59;5054509;28;20459;-70
2021/09/14 08:45:50;;;;;;;0.32;0.32;;;;;;;20.78;56.40;101906.50;5052834;28;20116;-71
2021/09/14 08:48:17;;;;;;;0.73;0.28;;;;;;;20.78;54.99;101910.09;5048897;28;20025;-72
2021/09/14 08:50:42;;;;;;;0.30;0.30;;;;;;;20.85;54.04;101911.19;5054110;28;20048;-73
2021/09/14 08:53:08;;;;;;;0.55;0.50;;;;;;;20.81;56.24;101915.25;5044960;28;20052;-72
2021/09/14 08:55:35;;;;;;;0.20;0.20;;;;;;;20.79;56.24;101919.16;5051173;28;20060;-72
2021/09/14 08:58:01;;;;;;;0.95;0.40;;;;;;;20.78;55.93;101912.84;5045611;28;20397;-71
2021/09/14 09:00:34;;;;;;;1.05;0.32;;;;;;;20.81;55.56;101911.66;5038774;28;20096;-73
2021/09/14 09:03:00;;;;;;;0.50;0.32;;;;;;;20.78;54.05;101914.72;5047841;28;20021;-73
2021/09/14 09:05:33;;;;;;;0.35;0.20;;;;;;;20.80;55.70;101920.88;5054165;28;20020;-72
2021/09/14 09:08:01;;;;;;;0.20;0.20;;;;;;;20.81;55.15;101911.66;5052064;28;20024;-71
2021/09/14 09:10:31;;;;;;;0.63;0.28;;;;;;;20.78;55.48;101910.09;5046840;28;20823;-73
2021/09/14 09:12:58;;;;;;;1.92;0.20;;;;;;;20.79;54.89;101897.28;5043824;28;20028;-72
2021/09/14 09:15:24;;;;;;;0.30;0.17;;;;;;;20.86;55.09;101921.09;5052762;28;20028;-71
2021/09/14 09:18:19;;;;;;;1.48;0.30;;;;;;;20.81;56.54;101922.59;5053558;28;20475;-72
2021/09/14 09:20:48;;;;;;;1.98;0.22;;;;;;;20.82;55.85;101913.34;4988472;28;20120;-71
2021/09/14 09:23:20;;;;;;;0.40;0.25;;;;;;;20.82;57.15;101918.81;4992501;28;20076;-71
2021/09/14 09:25:45;;;;;;;1.00;0.30;;;;;;;20.84;55.05;101923.13;4991576;28;20050;-69
2021/09/14 09:28:19;;;;;;;0.98;0.30;;;;;;;20.90;57.41;101918.88;4975257;28;20030;-69
2021/09/14 09:30:56;;;;;;;0.50;0.15;;;;;;;20.79;56.58;101900.88;4994246;28;20038;-69
2021/09/14 09:33:30;;;;;;;0.13;0.13;;;;;;;20.80;56.31;101904.47;4989578;28;20046;-68
2021/09/14 09:36:00;;;;;;;0.20;0.10;;;;;;;20.79;56.15;101913.69;4992214;28;20489;-70
2021/09/14 09:38:27;;;;;;;0.73;0.20;;;;;;;20.87;54.56;101908.28;4991347;28;20041;-68
2021/09/14 09:40:53;;;;;;;0.88;0.30;;;;;;;20.83;57.75;101904.16;4991736;28;20027;-70
2021/09/14 09:43:30;;;;;;;2.78;0.52;;;;;;;20.77;58.36;101882.94;4990687;28;20373;-69
2021/09/14 09:46:10;;;;;;;0.85;0.43;;;;;;;20.90;60.31;101894.28;4990068;28;20030;-71
2021/09/14 09:48:38;;;;;;;1.65;0.30;;;;;;;20.88;58.46;101899.06;4991645;28;20041;-69
2021/09/14 09:51:05;;;;;;;0.50;0.40;;;;;;;20.83;57.63;101917.84;4992173;28;20046;-69
2021/09/14 09:53:34;;;;;;;0.13;0.03;;;;;;;20.86;59.00;101890.19;4991307;28;20030;-68
2021/09/14 09:56:01;;;;;;;0.77;0.30;;;;;;;20.81;57.51;101900.72;4985509;28;20031;-67
2021/09/14 09:58:27;;;;;;;0.17;0.10;;;;;;;20.81;57.82;101900.72;5013145;28;20152;-69
2021/09/14 10:01:01;;;;;;;0.10;0.10;;;;;;;20.78;58.12;101903.78;5020462;28;20053;-69
2021/09/14 10:03:29;;;;;;;0.43;0.20;;;;;;;20.79;57.15;101903.63;5013534;28;20460;-70
2021/09/14 10:05:56;;;;;;;0.63;0.10;;;;;;;20.78;57.63;101901.03;5033353;28;20037;-68
2021/09/14 10:08:23;;;;;;;0.90;0.30;;;;;;;20.73;57.13;101899.66;5033537;28;20033;-69
2021/09/14 10:10:56;;;;;;;0.82;0.20;;;;;;;20.75;57.42;101904.97;5032681;28;20114;-70
2021/09/14 10:13:35;;;;;;;0.20;0.03;;;;;;;20.76;57.47;101903.09;5033854;28;20028;-67
2021/09/14 10:16:01;;;;;;;0.50;0.20;;;;;;;20.75;56.17;101895.91;5033677;28;20036;-69
2021/09/14 10:18:29;;;;;;;1.98;0.17;;;;;;;20.73;56.23;101894.19;5033435;28;20564;-69
2021/09/14 10:20:54;;;;;;;0.85;0.30;;;;;;;20.76;56.43;101903.09;5015778;28;20115;-69
2021/09/14 10:23:22;;;;;;;1.08;0.10;;;;;;;20.73;57.61;101894.19;5043011;28;20038;-70
2021/09/14 10:25:51;;;;;;;0.28;0.13;;;;;;;20.75;57.46;101901.38;5033657;28;20111;-69
2021/09/14 10:28:20;;;;;;;0.88;0.17;;;;;;;20.73;57.57;101899.66;5033423;28;20025;-69
2021/09/14 10:30:47;;;;;;;0.82;0.30;;;;;;;20.70;57.20;101900.00;5033124;28;20395;-66
2021/09/14 10:33:24;;;;;;;0.35;0.20;;;;;;;20.72;57.11;101899.81;5032990;28;20100;-68
2021/09/14 10:35:51;;;;;;;0.55;0.15;;;;;;;20.72;57.17;101900.69;5033271;28;20025;-68
2021/09/14 10:38:17;;;;;;;0.10;0.08;;;;;;;20.68;57.08;101902.03;5033408;28;20036;-68
2021/09/14 10:40:51;;;;;;;0.15;0.10;;;;;;;20.71;56.04;101901.72;5033021;28;20376;-68
2021/09/14 10:43:29;;;;;;;0.28;0.10;;;;;;;20.71;57.47;101901.72;5033099;28;20100;-67
2021/09/14 10:45:56;;;;;;;0.75;0.10;;;;;;;20.77;56.49;101910.25;5033005;28;20064;-68
2021/09/14 10:48:23;;;;;;;0.40;0.10;;;;;;;20.75;55.86;101915.03;5033253;28;20067;-68
2021/09/14 10:50:49;;;;;;;0.30;0.25;;;;;;;20.75;56.37;101910.44;5033109;28;20029;-68
2021/09/14 10:53:29;;;;;;;0.32;0.20;;;;;;;20.76;57.93;101911.28;5033042;28;20029;-68
2021/09/14 10:55:59;;;;;;;0.52;0.10;;;;;;;20.75;56.41;101913.16;5042525;28;20033;-67
2021/09/14 10:58:26;;;;;;;0.30;0.20;;;;;;;20.72;56.56;101908.88;5033074;28;20057;-67
2021/09/14 11:00:53;;;;;;;0.17;0.10;;;;;;;20.71;57.85;101922.72;5032637;28;20025;-68
2021/09/14 11:03:18;;;;;;;0.10;0.10;;;;;;;20.69;55.73;101924.75;5033140;28;20033;-68
2021/09/14 11:05:51;;;;;;;0.57;0.13;;;;;;;20.70;56.07;101927.31;5032906;28;20344;-69
2021/09/14 11:08:22;;;;;;;0.57;0.30;;;;;;;20.77;56.44;101930.25;5023129;28;20026;-68
2021/09/14 11:10:48;;;;;;;0.20;0.10;;;;;;;20.72;56.05;101927.16;5021899;28;20528;-67
2021/09/14 11:13:26;;;;;;;0.32;0.20;;;;;;;20.76;57.21;101933.16;5020417;28;20157;-68
2021/09/14 11:15:57;;;;;;;0.20;0.10;;;;;;;20.81;56.45;101917.13;5032635;28;20068;-68
2021/09/14 11:18:27;;;;;;;0.20;0.10;;;;;;;20.78;55.76;101917.44;5033162;28;20053;-68
2021/09/14 11:21:00;;;;;;;0.47;0.13;;;;;;;20.78;56.10;101920.19;5033194;28;20399;-68
2021/09/14 11:23:25;;;;;;;0.10;0.10;;;;;;;20.84;57.71;101922.28;5014940;28;20025;-68
2021/09/14 11:25:54;;;;;;;0.15;0.10;;;;;;;20.78;57.83;101917.44;5032127;28;20055;-67
2021/09/14 11:28:21;;;;;;;0.20;0.10;;;;;;;20.78;56.98;101920.19;5043057;28;20049;-68
2021/09/14 11:31:01;;;;;;;1.38;0.15;;;;;;;20.81;56.90;101922.59;5031936;28;20025;-68
2021/09/14 11:33:28;;;;;;;0.20;0.10;;;;;;;20.77;57.19;101919.31;5029748;28;20526;-68
2021/09/14 11:35:55;;;;;;;1.23;0.20;;;;;;;20.72;55.93;101914.34;5031927;28;20109;-69
2021/09/14 11:38:23;;;;;;;0.10;0.10;;;;;;;20.75;57.90;101928.69;5032167;28;20025;-69
2021/09/14 11:40:49;;;;;;;0.45;0.13;;;;;;;20.76;56.62;101919.47;5030779;28;20408;-68
2021/09/14 11:43:27;;;;;;;0.40;0.20;;;;;;;20.78;57.77;101939.31;5028839;28;20029;-68
2021/09/14 11:45:53;;;;;;;0.32;0.10;;;;;;;20.76;56.57;101931.28;5030713;28;20034;-69
2021/09/14 11:48:27;;;;;;;0.17;0.05;;;;;;;20.73;57.10;101935.19;5016111;28;20368;-68
2021/09/14 11:51:03;;;;;;;0.75;0.20;;;;;;;20.73;56.91;101937.06;5012675;28;20025;-68
2021/09/14 11:53:29;;;;;;;0.60;0.35;;;;;;;20.76;56.06;101930.41;5015842;28;20033;-68
2021/09/14 11:55:54;;;;;;;0.10;0.00;;;;;;;20.79;56.30;101925.47;5011151;28;20079;-69
2021/09/14 11:58:29;;;;;;;0.30;0.10;;;;;;;20.76;56.89;101916.75;5027893;28;20022;-68
2021/09/14 12:00:57;;;;;;;0.10;0.10;;;;;;;20.77;55.76;101915.72;5009881;28;20732;-68
2021/09/14 12:03:33;;;;;;;0.25;0.10;;;;;;;20.75;57.00;101935.03;5032576;28;20040;-67
2021/09/14 12:05:59;;;;;;;0.15;0.13;;;;;;;20.73;56.42;101916.06;5032442;28;20033;-68
2021/09/14 12:08:32;;;;;;;0.17;0.10;;;;;;;20.77;57.05;101926.66;5033222;28;20040;-68
2021/09/14 12:10:58;;;;;;;0.52;0.20;;;;;;;20.76;57.95;101930.41;5031644;28;20029;-68
2021/09/14 12:13:24;;;;;;;1.38;0.40;;;;;;;20.72;56.43;101930.75;5017813;28;20391;-67
2021/09/14 12:15:52;;;;;;;0.47;0.13;;;;;;;20.74;55.75;101927.84;5035597;28;20464;-68